sensor_id;sensor_type;location;lat;lon;timestamp;P1;durP1;ratioP1;P2;durP2;ratioP2
52730;SDS011;38624;53.242;6.974;2022-09-29T00:00:10;4.70;;;3.40;;
52730;SDS011;38624;53.242;6.974;2022-09-29T00:02:36;3.03;;;2.72;;
52730;SDS011;38624;53.242;6.974;2022-09-29T00:05:02;6.63;;;2.80;;
52730;SDS011;38624;53.242;6.974;2022-09-29T00:07:29;4.90;;;2.40;;
52730;SDS011;38624;53.242;6.974;2022-09-29T00:09:56;4.65;;;2.45;;
52730;SDS011;38624;53.242;6.974;2022-09-29T00:12:22;3.72;;;2.35;;
52730;SDS011;38624;53.242;6.974;2022-09-29T00:14:47;5.47;;;2.55;;
52730;SDS011;38624;53.242;6.974;2022-09-29T00:17:13;4.80;;;3.10;;
52730;SDS011;38624;53.242;6.974;2022-09-29T00:19:39;5.68;;;3.90;;
52730;SDS011;38624;53.242;6.974;2022-09-29T00:22:04;6.00;;;3.78;;
52730;SDS011;38624;53.242;6.974;2022-09-29T00:24:30;4.38;;;3.80;;
52730;SDS011;38624;53.242;6.974;2022-09-29T00:26:56;5.00;;;3.83;;
52730;SDS011;38624;53.242;6.974;2022-09-29T00:29:22;4.10;;;3.55;;
52730;SDS011;38624;53.242;6.974;2022-09-29T00:31:47;4.93;;;4.07;;
52730;SDS011;38624;53.242;6.974;2022-09-29T00:34:13;6.18;;;3.92;;
52730;SDS011;38624;53.242;6.974;2022-09-29T00:36:39;5.10;;;4.20;;
52730;SDS011;38624;53.242;6.974;2022-09-29T00:39:05;6.28;;;4.53;;
52730;SDS011;38624;53.242;6.974;2022-09-29T00:41:32;5.53;;;4.90;;
52730;SDS011;38624;53.242;6.974;2022-09-29T00:46:53;6.05;;;4.82;;
52730;SDS011;38624;53.242;6.974;2022-09-29T00:49:35;8.50;;;5.20;;
52730;SDS011;38624;53.242;6.974;2022-09-29T00:54:51;7.00;;;5.20;;
52730;SDS011;38624;53.242;6.974;2022-09-29T00:57:21;6.93;;;5.55;;
52730;SDS011;38624;53.242;6.974;2022-09-29T00:59:51;9.80;;;5.03;;
52730;SDS011;38624;53.242;6.974;2022-09-29T01:02:25;6.85;;;5.57;;
52730;SDS011;38624;53.242;6.974;2022-09-29T01:04:51;7.95;;;5.93;;
52730;SDS011;38624;53.242;6.974;2022-09-29T01:07:22;9.45;;;5.78;;
52730;SDS011;38624;53.242;6.974;2022-09-29T01:09:49;7.32;;;5.97;;
52730;SDS011;38624;53.242;6.974;2022-09-29T01:12:18;10.70;;;6.43;;
52730;SDS011;38624;53.242;6.974;2022-09-29T01:14:44;9.48;;;6.90;;
52730;SDS011;38624;53.242;6.974;2022-09-29T01:17:11;9.60;;;6.60;;
52730;SDS011;38624;53.242;6.974;2022-09-29T01:19:45;11.45;;;6.70;;
52730;SDS011;38624;53.242;6.974;2022-09-29T01:22:35;9.48;;;7.40;;
52730;SDS011;38624;53.242;6.974;2022-09-29T01:39:50;7.80;;;6.13;;
52730;SDS011;38624;53.242;6.974;2022-09-29T01:42:34;8.90;;;6.53;;
52730;SDS011;38624;53.242;6.974;2022-09-29T01:45:25;8.73;;;6.95;;
52730;SDS011;38624;53.242;6.974;2022-09-29T01:47:58;8.10;;;6.30;;
52730;SDS011;38624;53.242;6.974;2022-09-29T01:50:32;8.13;;;6.63;;
52730;SDS011;38624;53.242;6.974;2022-09-29T01:53:07;7.95;;;5.95;;
52730;SDS011;38624;53.242;6.974;2022-09-29T01:55:37;7.95;;;5.97;;
52730;SDS011;38624;53.242;6.974;2022-09-29T01:58:09;7.35;;;5.82;;
52730;SDS011;38624;53.242;6.974;2022-09-29T02:00:43;7.47;;;6.10;;
52730;SDS011;38624;53.242;6.974;2022-09-29T02:03:14;8.10;;;6.35;;
52730;SDS011;38624;53.242;6.974;2022-09-29T02:05:55;9.63;;;6.25;;
52730;SDS011;38624;53.242;6.974;2022-09-29T02:08:30;9.15;;;6.43;;
52730;SDS011;38624;53.242;6.974;2022-09-29T02:11:02;6.13;;;5.50;;
52730;SDS011;38624;53.242;6.974;2022-09-29T02:13:39;8.73;;;6.25;;
52730;SDS011;38624;53.242;6.974;2022-09-29T02:16:18;7.70;;;5.78;;
52730;SDS011;38624;53.242;6.974;2022-09-29T02:19:06;9.77;;;5.80;;
52730;SDS011;38624;53.242;6.974;2022-09-29T02:21:35;7.20;;;5.15;;
52730;SDS011;38624;53.242;6.974;2022-09-29T02:24:01;8.23;;;5.90;;
52730;SDS011;38624;53.242;6.974;2022-09-29T02:26:27;9.02;;;6.20;;
52730;SDS011;38624;53.242;6.974;2022-09-29T02:28:58;9.73;;;6.30;;
52730;SDS011;38624;53.242;6.974;2022-09-29T02:31:26;10.70;;;6.80;;
52730;SDS011;38624;53.242;6.974;2022-09-29T02:33:52;11.00;;;6.90;;
52730;SDS011;38624;53.242;6.974;2022-09-29T02:36:39;9.80;;;4.40;;
52730;SDS011;38624;53.242;6.974;2022-09-29T02:39:22;9.45;;;3.75;;
52730;SDS011;38624;53.242;6.974;2022-09-29T02:42:16;7.15;;;3.63;;
52730;SDS011;38624;53.242;6.974;2022-09-29T02:58:57;12.18;;;5.20;;
52730;SDS011;38624;53.242;6.974;2022-09-29T03:01:33;13.55;;;4.57;;
52730;SDS011;38624;53.242;6.974;2022-09-29T03:04:04;5.35;;;4.30;;
52730;SDS011;38624;53.242;6.974;2022-09-29T03:06:32;5.90;;;4.28;;
52730;SDS011;38624;53.242;6.974;2022-09-29T03:08:57;4.97;;;4.20;;
52730;SDS011;38624;53.242;6.974;2022-09-29T03:11:23;5.35;;;3.95;;
52730;SDS011;38624;53.242;6.974;2022-09-29T03:13:49;4.50;;;3.92;;
52730;SDS011;38624;53.242;6.974;2022-09-29T03:16:14;9.35;;;4.38;;
52730;SDS011;38624;53.242;6.974;2022-09-29T03:18:40;4.97;;;4.15;;
52730;SDS011;38624;53.242;6.974;2022-09-29T03:21:06;6.72;;;4.20;;
52730;SDS011;38624;53.242;6.974;2022-09-29T03:23:31;4.00;;;3.55;;
52730;SDS011;38624;53.242;6.974;2022-09-29T03:25:57;6.53;;;3.88;;
52730;SDS011;38624;53.242;6.974;2022-09-29T03:28:23;5.70;;;4.10;;
52730;SDS011;38624;53.242;6.974;2022-09-29T03:30:49;5.53;;;4.10;;
52730;SDS011;38624;53.242;6.974;2022-09-29T03:33:14;5.55;;;3.70;;
52730;SDS011;38624;53.242;6.974;2022-09-29T03:38:07;6.07;;;4.00;;
52730;SDS011;38624;53.242;6.974;2022-09-29T03:40:33;4.75;;;3.90;;
52730;SDS011;38624;53.242;6.974;2022-09-29T03:42:58;7.05;;;4.38;;
52730;SDS011;38624;53.242;6.974;2022-09-29T03:45:24;10.15;;;4.60;;
52730;SDS011;38624;53.242;6.974;2022-09-29T03:47:50;12.35;;;5.25;;
52730;SDS011;38624;53.242;6.974;2022-09-29T03:50:16;13.18;;;4.50;;
52730;SDS011;38624;53.242;6.974;2022-09-29T03:52:41;7.10;;;3.88;;
52730;SDS011;38624;53.242;6.974;2022-09-29T03:55:07;8.07;;;3.65;;
52730;SDS011;38624;53.242;6.974;2022-09-29T03:57:33;4.10;;;3.70;;
52730;SDS011;38624;53.242;6.974;2022-09-29T03:59:59;5.13;;;3.35;;
52730;SDS011;38624;53.242;6.974;2022-09-29T04:02:24;6.45;;;3.60;;
52730;SDS011;38624;53.242;6.974;2022-09-29T04:04:50;6.05;;;3.67;;
52730;SDS011;38624;53.242;6.974;2022-09-29T04:07:16;4.60;;;3.30;;
52730;SDS011;38624;53.242;6.974;2022-09-29T04:09:41;6.55;;;4.15;;
52730;SDS011;38624;53.242;6.974;2022-09-29T04:12:07;5.20;;;4.20;;
52730;SDS011;38624;53.242;6.974;2022-09-29T04:14:33;17.40;;;3.25;;
52730;SDS011;38624;53.242;6.974;2022-09-29T04:16:59;6.75;;;3.60;;
52730;SDS011;38624;53.242;6.974;2022-09-29T04:19:24;16.75;;;4.50;;
52730;SDS011;38624;53.242;6.974;2022-09-29T04:21:50;25.40;;;5.25;;
52730;SDS011;38624;53.242;6.974;2022-09-29T04:24:16;36.80;;;5.25;;
52730;SDS011;38624;53.242;6.974;2022-09-29T04:26:41;36.75;;;5.10;;
52730;SDS011;38624;53.242;6.974;2022-09-29T04:29:07;48.55;;;5.85;;
52730;SDS011;38624;53.242;6.974;2022-09-29T04:31:32;26.30;;;6.00;;
52730;SDS011;38624;53.242;6.974;2022-09-29T04:33:58;37.83;;;5.15;;
52730;SDS011;38624;53.242;6.974;2022-09-29T04:36:24;37.38;;;5.80;;
52730;SDS011;38624;53.242;6.974;2022-09-29T04:38:49;47.75;;;5.50;;
52730;SDS011;38624;53.242;6.974;2022-09-29T04:41:15;36.88;;;5.57;;
52730;SDS011;38624;53.242;6.974;2022-09-29T04:43:41;30.30;;;5.20;;
52730;SDS011;38624;53.242;6.974;2022-09-29T04:46:07;48.40;;;5.93;;
52730;SDS011;38624;53.242;6.974;2022-09-29T04:48:34;34.40;;;5.95;;
52730;SDS011;38624;53.242;6.974;2022-09-29T04:51:00;38.83;;;6.55;;
52730;SDS011;38624;53.242;6.974;2022-09-29T04:53:26;34.30;;;6.20;;
52730;SDS011;38624;53.242;6.974;2022-09-29T04:55:52;46.60;;;7.35;;
52730;SDS011;38624;53.242;6.974;2022-09-29T04:58:18;15.00;;;7.00;;
52730;SDS011;38624;53.242;6.974;2022-09-29T05:00:43;10.98;;;7.78;;
52730;SDS011;38624;53.242;6.974;2022-09-29T05:03:09;9.50;;;7.93;;
52730;SDS011;38624;53.242;6.974;2022-09-29T05:05:35;13.90;;;8.30;;
52730;SDS011;38624;53.242;6.974;2022-09-29T05:08:04;12.27;;;9.15;;
52730;SDS011;38624;53.242;6.974;2022-09-29T05:10:30;8.98;;;7.70;;
52730;SDS011;38624;53.242;6.974;2022-09-29T05:12:56;11.93;;;8.18;;
52730;SDS011;38624;53.242;6.974;2022-09-29T05:15:22;10.55;;;8.02;;
52730;SDS011;38624;53.242;6.974;2022-09-29T05:17:48;12.10;;;9.38;;
52730;SDS011;38624;53.242;6.974;2022-09-29T05:20:13;12.18;;;8.88;;
52730;SDS011;38624;53.242;6.974;2022-09-29T05:22:40;11.50;;;9.02;;
52730;SDS011;38624;53.242;6.974;2022-09-29T05:25:06;11.07;;;9.30;;
52730;SDS011;38624;53.242;6.974;2022-09-29T05:27:33;12.27;;;9.80;;
52730;SDS011;38624;53.242;6.974;2022-09-29T05:30:02;11.65;;;8.98;;
52730;SDS011;38624;53.242;6.974;2022-09-29T05:32:29;12.98;;;9.35;;
52730;SDS011;38624;53.242;6.974;2022-09-29T05:34:54;12.98;;;8.93;;
52730;SDS011;38624;53.242;6.974;2022-09-29T05:37:20;12.65;;;8.93;;
52730;SDS011;38624;53.242;6.974;2022-09-29T05:39:46;11.65;;;9.00;;
52730;SDS011;38624;53.242;6.974;2022-09-29T05:42:11;14.43;;;7.88;;
52730;SDS011;38624;53.242;6.974;2022-09-29T05:44:37;11.38;;;7.18;;
52730;SDS011;38624;53.242;6.974;2022-09-29T05:47:03;16.90;;;7.60;;
52730;SDS011;38624;53.242;6.974;2022-09-29T05:49:29;12.40;;;6.72;;
52730;SDS011;38624;53.242;6.974;2022-09-29T05:51:56;7.82;;;6.68;;
52730;SDS011;38624;53.242;6.974;2022-09-29T05:54:22;11.48;;;7.30;;
52730;SDS011;38624;53.242;6.974;2022-09-29T05:56:48;10.35;;;6.70;;
52730;SDS011;38624;53.242;6.974;2022-09-29T05:59:14;9.30;;;6.85;;
52730;SDS011;38624;53.242;6.974;2022-09-29T06:01:39;8.40;;;6.95;;
52730;SDS011;38624;53.242;6.974;2022-09-29T06:04:05;8.55;;;6.15;;
52730;SDS011;38624;53.242;6.974;2022-09-29T06:06:31;9.35;;;6.47;;
52730;SDS011;38624;53.242;6.974;2022-09-29T06:08:57;6.75;;;5.97;;
52730;SDS011;38624;53.242;6.974;2022-09-29T06:11:24;10.45;;;8.05;;
52730;SDS011;38624;53.242;6.974;2022-09-29T06:13:52;6.85;;;6.15;;
52730;SDS011;38624;53.242;6.974;2022-09-29T06:16:20;8.07;;;6.28;;
52730;SDS011;38624;53.242;6.974;2022-09-29T06:18:49;10.07;;;7.15;;
52730;SDS011;38624;53.242;6.974;2022-09-29T06:21:18;9.75;;;8.02;;
52730;SDS011;38624;53.242;6.974;2022-09-29T06:23:47;8.90;;;6.88;;
52730;SDS011;38624;53.242;6.974;2022-09-29T06:26:15;9.98;;;6.40;;
52730;SDS011;38624;53.242;6.974;2022-09-29T06:28:42;8.35;;;6.18;;
52730;SDS011;38624;53.242;6.974;2022-09-29T06:31:12;9.73;;;6.28;;
52730;SDS011;38624;53.242;6.974;2022-09-29T06:33:40;8.85;;;7.13;;
52730;SDS011;38624;53.242;6.974;2022-09-29T06:36:08;14.63;;;7.20;;
52730;SDS011;38624;53.242;6.974;2022-09-29T06:38:58;14.48;;;7.75;;
52730;SDS011;38624;53.242;6.974;2022-09-29T06:41:25;10.75;;;6.85;;
52730;SDS011;38624;53.242;6.974;2022-09-29T06:43:53;23.88;;;7.35;;
52730;SDS011;38624;53.242;6.974;2022-09-29T06:46:19;16.63;;;7.40;;
52730;SDS011;38624;53.242;6.974;2022-09-29T06:48:46;21.33;;;7.88;;
52730;SDS011;38624;53.242;6.974;2022-09-29T06:51:11;11.20;;;7.38;;
52730;SDS011;38624;53.242;6.974;2022-09-29T06:53:39;13.20;;;7.28;;
52730;SDS011;38624;53.242;6.974;2022-09-29T06:56:05;19.50;;;7.10;;
52730;SDS011;38624;53.242;6.974;2022-09-29T06:58:33;13.02;;;7.00;;
52730;SDS011;38624;53.242;6.974;2022-09-29T07:00:59;10.45;;;7.53;;
52730;SDS011;38624;53.242;6.974;2022-09-29T07:05:55;9.48;;;7.22;;
52730;SDS011;38624;53.242;6.974;2022-09-29T07:08:22;9.73;;;7.53;;
52730;SDS011;38624;53.242;6.974;2022-09-29T07:10:47;9.88;;;7.55;;
52730;SDS011;38624;53.242;6.974;2022-09-29T07:13:13;9.75;;;7.82;;
52730;SDS011;38624;53.242;6.974;2022-09-29T07:15:39;8.77;;;7.53;;
52730;SDS011;38624;53.242;6.974;2022-09-29T07:18:04;9.77;;;7.70;;
52730;SDS011;38624;53.242;6.974;2022-09-29T07:20:30;10.65;;;8.00;;
52730;SDS011;38624;53.242;6.974;2022-09-29T07:22:56;11.77;;;8.98;;
52730;SDS011;38624;53.242;6.974;2022-09-29T07:25:22;10.98;;;8.30;;
52730;SDS011;38624;53.242;6.974;2022-09-29T07:27:48;13.13;;;8.90;;
52730;SDS011;38624;53.242;6.974;2022-09-29T07:30:15;11.32;;;9.68;;
52730;SDS011;38624;53.242;6.974;2022-09-29T07:32:42;15.02;;;10.20;;
52730;SDS011;38624;53.242;6.974;2022-09-29T07:35:07;17.00;;;11.15;;
52730;SDS011;38624;53.242;6.974;2022-09-29T07:37:33;16.63;;;12.18;;
52730;SDS011;38624;53.242;6.974;2022-09-29T07:39:59;19.00;;;12.82;;
52730;SDS011;38624;53.242;6.974;2022-09-29T07:42:26;19.90;;;14.13;;
52730;SDS011;38624;53.242;6.974;2022-09-29T07:44:53;19.30;;;14.57;;
52730;SDS011;38624;53.242;6.974;2022-09-29T07:47:19;20.50;;;13.63;;
52730;SDS011;38624;53.242;6.974;2022-09-29T07:49:45;19.15;;;14.27;;
52730;SDS011;38624;53.242;6.974;2022-09-29T07:52:11;22.38;;;14.38;;
52730;SDS011;38624;53.242;6.974;2022-09-29T07:54:38;20.88;;;14.60;;
52730;SDS011;38624;53.242;6.974;2022-09-29T07:57:03;18.98;;;14.00;;
52730;SDS011;38624;53.242;6.974;2022-09-29T07:59:29;22.90;;;16.27;;
52730;SDS011;38624;53.242;6.974;2022-09-29T08:01:55;19.15;;;14.52;;
52730;SDS011;38624;53.242;6.974;2022-09-29T08:04:21;20.98;;;15.20;;
52730;SDS011;38624;53.242;6.974;2022-09-29T08:06:47;18.65;;;14.35;;
52730;SDS011;38624;53.242;6.974;2022-09-29T08:09:13;18.80;;;13.88;;
52730;SDS011;38624;53.242;6.974;2022-09-29T08:11:40;19.88;;;14.25;;
52730;SDS011;38624;53.242;6.974;2022-09-29T08:14:07;20.00;;;14.15;;
52730;SDS011;38624;53.242;6.974;2022-09-29T08:16:34;20.98;;;14.50;;
52730;SDS011;38624;53.242;6.974;2022-09-29T08:19:00;19.80;;;13.80;;
52730;SDS011;38624;53.242;6.974;2022-09-29T08:21:27;21.13;;;13.68;;
52730;SDS011;38624;53.242;6.974;2022-09-29T08:23:55;21.38;;;13.95;;
52730;SDS011;38624;53.242;6.974;2022-09-29T08:26:21;17.73;;;13.48;;
52730;SDS011;38624;53.242;6.974;2022-09-29T08:28:47;20.45;;;14.45;;
52730;SDS011;38624;53.242;6.974;2022-09-29T08:31:17;21.08;;;15.13;;
52730;SDS011;38624;53.242;6.974;2022-09-29T08:33:46;18.42;;;13.95;;
52730;SDS011;38624;53.242;6.974;2022-09-29T08:36:15;21.98;;;15.20;;
52730;SDS011;38624;53.242;6.974;2022-09-29T08:38:44;18.75;;;13.95;;
52730;SDS011;38624;53.242;6.974;2022-09-29T08:44:29;20.13;;;13.30;;
52730;SDS011;38624;53.242;6.974;2022-09-29T08:47:13;16.85;;;13.07;;
52730;SDS011;38624;53.242;6.974;2022-09-29T08:49:44;19.02;;;13.80;;
52730;SDS011;38624;53.242;6.974;2022-09-29T08:52:18;19.63;;;12.95;;
52730;SDS011;38624;53.242;6.974;2022-09-29T08:54:58;17.52;;;13.32;;
52730;SDS011;38624;53.242;6.974;2022-09-29T08:57:40;19.10;;;13.55;;
52730;SDS011;38624;53.242;6.974;2022-09-29T09:00:10;16.02;;;12.98;;
52730;SDS011;38624;53.242;6.974;2022-09-29T09:11:19;17.58;;;11.68;;
52730;SDS011;38624;53.242;6.974;2022-09-29T09:13:50;16.08;;;12.30;;
52730;SDS011;38624;53.242;6.974;2022-09-29T09:21:57;15.82;;;12.00;;
52730;SDS011;38624;53.242;6.974;2022-09-29T09:24:41;14.45;;;11.40;;
52730;SDS011;38624;53.242;6.974;2022-09-29T09:27:23;15.18;;;11.15;;
52730;SDS011;38624;53.242;6.974;2022-09-29T09:29:54;14.13;;;10.35;;
52730;SDS011;38624;53.242;6.974;2022-09-29T09:32:27;11.40;;;9.15;;
52730;SDS011;38624;53.242;6.974;2022-09-29T09:34:58;11.05;;;9.80;;
52730;SDS011;38624;53.242;6.974;2022-09-29T09:37:33;10.68;;;8.80;;
52730;SDS011;38624;53.242;6.974;2022-09-29T09:42:51;11.65;;;7.88;;
52730;SDS011;38624;53.242;6.974;2022-09-29T09:45:45;8.57;;;7.25;;
52730;SDS011;38624;53.242;6.974;2022-09-29T09:48:41;8.20;;;6.70;;
52730;SDS011;38624;53.242;6.974;2022-09-29T09:54:30;8.43;;;6.88;;
52730;SDS011;38624;53.242;6.974;2022-09-29T09:57:11;8.98;;;6.50;;
52730;SDS011;38624;53.242;6.974;2022-09-29T10:02:41;9.07;;;5.40;;
52730;SDS011;38624;53.242;6.974;2022-09-29T10:05:10;7.75;;;5.35;;
52730;SDS011;38624;53.242;6.974;2022-09-29T10:07:41;9.68;;;6.45;;
52730;SDS011;38624;53.242;6.974;2022-09-29T10:13:05;6.20;;;5.20;;
52730;SDS011;38624;53.242;6.974;2022-09-29T10:20:55;8.10;;;5.50;;
52730;SDS011;38624;53.242;6.974;2022-09-29T10:28:58;6.30;;;4.50;;
52730;SDS011;38624;53.242;6.974;2022-09-29T10:31:33;6.60;;;4.18;;
52730;SDS011;38624;53.242;6.974;2022-09-29T10:44:41;2.58;;;1.60;;
52730;SDS011;38624;53.242;6.974;2022-09-29T10:47:13;2.25;;;1.60;;
52730;SDS011;38624;53.242;6.974;2022-09-29T10:49:39;2.80;;;1.80;;
52730;SDS011;38624;53.242;6.974;2022-09-29T10:52:06;6.18;;;1.98;;
52730;SDS011;38624;53.242;6.974;2022-09-29T10:54:51;2.65;;;1.60;;
52730;SDS011;38624;53.242;6.974;2022-09-29T10:57:24;4.05;;;2.05;;
52730;SDS011;38624;53.242;6.974;2022-09-29T10:59:52;4.95;;;2.50;;
52730;SDS011;38624;53.242;6.974;2022-09-29T11:02:20;3.38;;;2.17;;
52730;SDS011;38624;53.242;6.974;2022-09-29T11:04:59;6.85;;;2.05;;
52730;SDS011;38624;53.242;6.974;2022-09-29T11:07:46;3.65;;;1.95;;
52730;SDS011;38624;53.242;6.974;2022-09-29T11:10:32;3.72;;;1.70;;
52730;SDS011;38624;53.242;6.974;2022-09-29T11:15:44;3.22;;;1.67;;
52730;SDS011;38624;53.242;6.974;2022-09-29T11:18:23;2.95;;;1.83;;
52730;SDS011;38624;53.242;6.974;2022-09-29T11:24:05;2.58;;;1.50;;
52730;SDS011;38624;53.242;6.974;2022-09-29T11:32:15;2.80;;;1.48;;
52730;SDS011;38624;53.242;6.974;2022-09-29T11:42:47;1.63;;;0.90;;
52730;SDS011;38624;53.242;6.974;2022-09-29T11:45:15;1.50;;;0.90;;
52730;SDS011;38624;53.242;6.974;2022-09-29T11:53:30;0.85;;;0.70;;
52730;SDS011;38624;53.242;6.974;2022-09-29T11:56:28;2.25;;;1.10;;
52730;SDS011;38624;53.242;6.974;2022-09-29T12:04:27;2.05;;;1.50;;
52730;SDS011;38624;53.242;6.974;2022-09-29T12:07:41;2.00;;;1.33;;
52730;SDS011;38624;53.242;6.974;2022-09-29T12:10:27;3.80;;;1.73;;
52730;SDS011;38624;53.242;6.974;2022-09-29T12:13:16;3.35;;;1.60;;
52730;SDS011;38624;53.242;6.974;2022-09-29T12:16:06;3.50;;;1.60;;
52730;SDS011;38624;53.242;6.974;2022-09-29T12:18:53;4.10;;;1.42;;
52730;SDS011;38624;53.242;6.974;2022-09-29T12:21:40;1.38;;;1.15;;
52730;SDS011;38624;53.242;6.974;2022-09-29T12:24:10;2.88;;;1.50;;
52730;SDS011;38624;53.242;6.974;2022-09-29T12:26:42;2.42;;;1.52;;
52730;SDS011;38624;53.242;6.974;2022-09-29T12:29:21;2.30;;;1.50;;
52730;SDS011;38624;53.242;6.974;2022-09-29T12:32:03;2.80;;;1.50;;
52730;SDS011;38624;53.242;6.974;2022-09-29T12:34:41;1.85;;;1.33;;
52730;SDS011;38624;53.242;6.974;2022-09-29T12:37:22;3.70;;;1.20;;
52730;SDS011;38624;53.242;6.974;2022-09-29T12:40:02;2.08;;;1.38;;
52730;SDS011;38624;53.242;6.974;2022-09-29T12:42:44;3.25;;;1.42;;
52730;SDS011;38624;53.242;6.974;2022-09-29T12:50:32;1.88;;;1.30;;
52730;SDS011;38624;53.242;6.974;2022-09-29T12:53:13;2.42;;;1.40;;
52730;SDS011;38624;53.242;6.974;2022-09-29T12:56:17;3.80;;;1.50;;
52730;SDS011;38624;53.242;6.974;2022-09-29T12:59:04;1.85;;;1.23;;
52730;SDS011;38624;53.242;6.974;2022-09-29T13:01:54;1.98;;;1.20;;
52730;SDS011;38624;53.242;6.974;2022-09-29T13:15:06;3.28;;;0.90;;
52730;SDS011;38624;53.242;6.974;2022-09-29T13:28:12;1.05;;;0.80;;
52730;SDS011;38624;53.242;6.974;2022-09-29T13:31:19;1.17;;;0.70;;
52730;SDS011;38624;53.242;6.974;2022-09-29T13:33:53;3.10;;;0.80;;
52730;SDS011;38624;53.242;6.974;2022-09-29T13:36:25;1.38;;;0.80;;
52730;SDS011;38624;53.242;6.974;2022-09-29T13:38:54;0.80;;;0.68;;
52730;SDS011;38624;53.242;6.974;2022-09-29T13:49:10;1.20;;;0.80;;
52730;SDS011;38624;53.242;6.974;2022-09-29T13:59:44;1.48;;;0.70;;
52730;SDS011;38624;53.242;6.974;2022-09-29T14:02:31;2.38;;;0.60;;
52730;SDS011;38624;53.242;6.974;2022-09-29T14:05:00;0.80;;;0.65;;
52730;SDS011;38624;53.242;6.974;2022-09-29T14:07:43;1.48;;;0.80;;
52730;SDS011;38624;53.242;6.974;2022-09-29T14:12:46;1.73;;;0.70;;
52730;SDS011;38624;53.242;6.974;2022-09-29T14:15:18;2.20;;;0.60;;
52730;SDS011;38624;53.242;6.974;2022-09-29T14:20:22;2.35;;;0.68;;
52730;SDS011;38624;53.242;6.974;2022-09-29T14:22:56;2.40;;;0.60;;
52730;SDS011;38624;53.242;6.974;2022-09-29T14:25:31;1.83;;;0.63;;
52730;SDS011;38624;53.242;6.974;2022-09-29T14:28:10;1.48;;;0.65;;
52730;SDS011;38624;53.242;6.974;2022-09-29T14:30:41;1.95;;;0.70;;
52730;SDS011;38624;53.242;6.974;2022-09-29T14:38:26;1.45;;;0.43;;
52730;SDS011;38624;53.242;6.974;2022-09-29T14:43:51;0.77;;;0.50;;
52730;SDS011;38624;53.242;6.974;2022-09-29T15:00:36;2.78;;;0.80;;
52730;SDS011;38624;53.242;6.974;2022-09-29T15:03:10;0.93;;;0.50;;
52730;SDS011;38624;53.242;6.974;2022-09-29T15:05:43;2.20;;;0.88;;
52730;SDS011;38624;53.242;6.974;2022-09-29T15:08:28;4.30;;;2.42;;
52730;SDS011;38624;53.242;6.974;2022-09-29T15:11:00;2.22;;;0.90;;
52730;SDS011;38624;53.242;6.974;2022-09-29T15:13:28;0.88;;;0.60;;
52730;SDS011;38624;53.242;6.974;2022-09-29T15:16:03;1.95;;;0.60;;
52730;SDS011;38624;53.242;6.974;2022-09-29T15:21:29;1.75;;;0.60;;
52730;SDS011;38624;53.242;6.974;2022-09-29T15:24:16;1.95;;;0.70;;
52730;SDS011;38624;53.242;6.974;2022-09-29T15:26:46;1.60;;;0.90;;
52730;SDS011;38624;53.242;6.974;2022-09-29T15:29:15;2.80;;;1.10;;
52730;SDS011;38624;53.242;6.974;2022-09-29T15:31:43;1.90;;;0.90;;
52730;SDS011;38624;53.242;6.974;2022-09-29T15:34:20;1.00;;;0.80;;
52730;SDS011;38624;53.242;6.974;2022-09-29T15:36:50;1.13;;;0.80;;
52730;SDS011;38624;53.242;6.974;2022-09-29T15:44:58;6.85;;;0.98;;
52730;SDS011;38624;53.242;6.974;2022-09-29T15:47:43;2.47;;;1.00;;
52730;SDS011;38624;53.242;6.974;2022-09-29T15:50:19;1.30;;;0.77;;
52730;SDS011;38624;53.242;6.974;2022-09-29T15:52:47;1.58;;;0.60;;
52730;SDS011;38624;53.242;6.974;2022-09-29T15:55:15;2.35;;;0.63;;
52730;SDS011;38624;53.242;6.974;2022-09-29T15:57:48;2.40;;;1.05;;
52730;SDS011;38624;53.242;6.974;2022-09-29T16:05:34;1.73;;;0.70;;
52730;SDS011;38624;53.242;6.974;2022-09-29T16:08:04;3.35;;;1.85;;
52730;SDS011;38624;53.242;6.974;2022-09-29T16:10:33;1.55;;;1.00;;
52730;SDS011;38624;53.242;6.974;2022-09-29T16:13:34;2.72;;;0.75;;
52730;SDS011;38624;53.242;6.974;2022-09-29T16:16:05;2.22;;;0.70;;
52730;SDS011;38624;53.242;6.974;2022-09-29T16:18:43;1.15;;;0.60;;
52730;SDS011;38624;53.242;6.974;2022-09-29T16:21:12;2.00;;;0.70;;
52730;SDS011;38624;53.242;6.974;2022-09-29T16:23:48;3.63;;;0.60;;
52730;SDS011;38624;53.242;6.974;2022-09-29T16:26:41;1.80;;;0.57;;
52730;SDS011;38624;53.242;6.974;2022-09-29T16:31:58;3.22;;;0.85;;
52730;SDS011;38624;53.242;6.974;2022-09-29T16:34:44;4.47;;;0.90;;
52730;SDS011;38624;53.242;6.974;2022-09-29T16:37:13;4.57;;;0.80;;
52730;SDS011;38624;53.242;6.974;2022-09-29T16:39:42;3.40;;;0.70;;
52730;SDS011;38624;53.242;6.974;2022-09-29T16:42:21;1.33;;;0.60;;
52730;SDS011;38624;53.242;6.974;2022-09-29T16:44:49;1.65;;;0.50;;
52730;SDS011;38624;53.242;6.974;2022-09-29T16:49:48;4.68;;;0.80;;
52730;SDS011;38624;53.242;6.974;2022-09-29T16:52:19;0.50;;;0.50;;
52730;SDS011;38624;53.242;6.974;2022-09-29T16:57:50;8.85;;;1.13;;
52730;SDS011;38624;53.242;6.974;2022-09-29T17:00:35;1.33;;;0.60;;
52730;SDS011;38624;53.242;6.974;2022-09-29T17:03:02;2.17;;;0.60;;
52730;SDS011;38624;53.242;6.974;2022-09-29T17:05:30;2.30;;;0.60;;
52730;SDS011;38624;53.242;6.974;2022-09-29T17:08:44;2.05;;;0.70;;
52730;SDS011;38624;53.242;6.974;2022-09-29T17:11:06;3.45;;;1.00;;
52730;SDS011;38624;53.242;6.974;2022-09-29T17:13:32;2.17;;;0.90;;
52730;SDS011;38624;53.242;6.974;2022-09-29T17:15:59;0.95;;;0.82;;
52730;SDS011;38624;53.242;6.974;2022-09-29T17:18:26;1.80;;;1.00;;
52730;SDS011;38624;53.242;6.974;2022-09-29T17:20:53;3.42;;;1.20;;
52730;SDS011;38624;53.242;6.974;2022-09-29T17:23:19;3.13;;;1.13;;
52730;SDS011;38624;53.242;6.974;2022-09-29T17:25:45;3.53;;;0.95;;
52730;SDS011;38624;53.242;6.974;2022-09-29T17:30:56;2.28;;;0.98;;
52730;SDS011;38624;53.242;6.974;2022-09-29T17:33:22;1.05;;;0.80;;
52730;SDS011;38624;53.242;6.974;2022-09-29T17:35:48;2.17;;;0.98;;
52730;SDS011;38624;53.242;6.974;2022-09-29T17:38:15;2.10;;;1.00;;
52730;SDS011;38624;53.242;6.974;2022-09-29T17:41:01;5.43;;;0.88;;
52730;SDS011;38624;53.242;6.974;2022-09-29T17:43:28;4.55;;;1.30;;
52730;SDS011;38624;53.242;6.974;2022-09-29T17:45:57;3.83;;;1.30;;
52730;SDS011;38624;53.242;6.974;2022-09-29T17:48:24;2.88;;;1.20;;
52730;SDS011;38624;53.242;6.974;2022-09-29T17:50:51;2.65;;;1.08;;
52730;SDS011;38624;53.242;6.974;2022-09-29T17:53:18;2.90;;;1.20;;
52730;SDS011;38624;53.242;6.974;2022-09-29T17:55:45;4.72;;;1.20;;
52730;SDS011;38624;53.242;6.974;2022-09-29T17:58:13;2.85;;;1.20;;
52730;SDS011;38624;53.242;6.974;2022-09-29T18:03:07;3.60;;;1.02;;
52730;SDS011;38624;53.242;6.974;2022-09-29T18:05:36;5.65;;;1.10;;
52730;SDS011;38624;53.242;6.974;2022-09-29T18:08:04;4.05;;;1.30;;
52730;SDS011;38624;53.242;6.974;2022-09-29T18:10:44;3.65;;;1.33;;
52730;SDS011;38624;53.242;6.974;2022-09-29T18:13:11;5.05;;;1.60;;
52730;SDS011;38624;53.242;6.974;2022-09-29T18:15:37;3.03;;;1.10;;
52730;SDS011;38624;53.242;6.974;2022-09-29T18:18:04;6.18;;;2.28;;
52730;SDS011;38624;53.242;6.974;2022-09-29T18:20:32;4.22;;;1.00;;
52730;SDS011;38624;53.242;6.974;2022-09-29T18:23:00;3.90;;;1.42;;
52730;SDS011;38624;53.242;6.974;2022-09-29T18:25:26;2.88;;;1.42;;
52730;SDS011;38624;53.242;6.974;2022-09-29T18:27:54;4.60;;;1.92;;
52730;SDS011;38624;53.242;6.974;2022-09-29T18:30:20;4.53;;;1.80;;
52730;SDS011;38624;53.242;6.974;2022-09-29T18:32:52;10.10;;;2.03;;
52730;SDS011;38624;53.242;6.974;2022-09-29T18:35:20;4.07;;;2.00;;
52730;SDS011;38624;53.242;6.974;2022-09-29T18:37:49;7.60;;;1.80;;
52730;SDS011;38624;53.242;6.974;2022-09-29T18:40:16;3.63;;;1.98;;
52730;SDS011;38624;53.242;6.974;2022-09-29T18:45:10;3.28;;;2.05;;